Time;durP1;ratioP1;P1;durP2;ratioP2;P2;SDS_P1;SDS_P2;PMS_P1;PMS_P2;Temp;Humidity;BMP_temperature;BMP_pressure;BME280_temperature;BME280_humidity;BME280_pressure;Samples;Min_cycle;Max_cycle;Signal;HPM_P1;HPM_P2
2023/04/24 00:01:12;;;;;;;5.55;3.80;;;;;;;-144.85;100.00;61331.59;5018995;28;31261;-81
2023/04/24 00:03:39;;;;;;;5.00;3.83;;;;;;;-144.85;100.00;61331.59;5019431;28;31957;-80
2023/04/24 00:06:07;;;;;;;5.25;3.67;;;;;;;-144.85;100.00;61331.59;5021526;28;32516;-81
2023/04/24 00:08:36;;;;;;;4.32;3.55;;;;;;;-144.85;100.00;61331.59;5027587;28;32243;-80
2023/04/24 00:11:03;;;;;;;5.88;4.03;;;;;;;-144.85;100.00;61331.59;5010908;28;30699;-79
2023/04/24 00:13:30;;;;;;;5.85;4.45;;;;;;;-144.85;100.00;61331.59;5018500;28;30670;-81
2023/04/24 00:15:57;;;;;;;6.25;4.35;;;;;;;-144.85;100.00;61331.59;5020357;28;32393;-81
2023/04/24 00:18:24;;;;;;;5.57;4.78;;;;;;;-144.85;100.00;61331.59;5018422;28;33085;-81
2023/04/24 00:20:52;;;;;;;5.95;4.93;;;;;;;-144.85;100.00;61331.59;5020516;28;31738;-82
2023/04/24 00:23:19;;;;;;;8.15;5.55;;;;;;;-144.85;100.00;61331.59;5019379;28;32283;-79
2023/04/24 00:25:46;;;;;;;8.27;6.00;;;;;;;-144.85;100.00;61331.59;5002633;28;31360;-81
2023/04/24 00:28:13;;;;;;;7.90;5.93;;;;;;;-144.85;100.00;61331.59;5019078;28;32279;-81
2023/04/24 00:30:40;;;;;;;8.57;6.38;;;;;;;-144.85;100.00;61331.59;5018648;28;31705;-80
2023/04/24 00:33:08;;;;;;;9.65;6.30;;;;;;;-144.85;100.00;61331.59;5001971;28;31909;-81
2023/04/24 00:35:35;;;;;;;9.68;6.20;;;;;;;-144.85;100.00;61331.59;5018326;28;32517;-81
2023/04/24 00:38:02;;;;;;;10.68;6.60;;;;;;;-144.85;100.00;61331.59;5002408;28;31399;-81
2023/04/24 00:40:29;;;;;;;8.98;6.22;;;;;;;-144.85;100.00;61331.59;5019485;28;31681;-79
2023/04/24 00:42:57;;;;;;;11.65;7.22;;;;;;;-144.85;100.00;61331.59;5018422;28;31467;-81
2023/04/24 00:45:24;;;;;;;12.32;7.47;;;;;;;-144.85;100.00;61331.59;5001887;28;31974;-81
2023/04/24 00:47:52;;;;;;;11.70;7.55;;;;;;;-144.85;100.00;61331.59;5019347;28;31723;-81
2023/04/24 00:50:21;;;;;;;15.50;8.45;;;;;;;-144.85;100.00;61331.59;5016714;28;31500;-80
2023/04/24 00:52:48;;;;;;;13.98;7.97;;;;;;;-144.85;100.00;61331.59;5019488;28;31364;-81
2023/04/24 00:55:16;;;;;;;12.68;8.65;;;;;;;-144.85;100.00;61331.59;5000560;28;32250;-80
2023/04/24 00:57:45;;;;;;;13.70;8.32;;;;;;;-144.85;100.00;61331.59;5019802;28;32179;-81
2023/04/24 01:00:13;;;;;;;15.10;9.35;;;;;;;-144.85;100.00;61331.59;5018351;28;31956;-81
2023/04/24 01:02:45;;;;;;;13.27;9.05;;;;;;;-144.85;100.00;61331.59;5018106;28;30766;-81
2023/04/24 01:05:14;;;;;;;14.68;9.02;;;;;;;-144.85;100.00;61331.59;5032524;28;31128;-82
2023/04/24 01:07:45;;;;;;;12.80;8.75;;;;;;;-144.85;100.00;61331.59;5002377;28;31492;-82
2023/04/24 01:10:13;;;;;;;14.85;10.10;;;;;;;-144.85;100.00;61331.59;5018744;28;31606;-82
2023/04/24 01:12:41;;;;;;;14.05;9.65;;;;;;;-144.85;100.00;61331.59;5025525;28;31474;-82
2023/04/24 01:15:09;;;;;;;17.35;10.23;;;;;;;-144.85;100.00;61331.59;5017654;28;31697;-83
2023/04/24 01:17:36;;;;;;;13.77;9.60;;;;;;;-144.85;100.00;61331.59;5001316;28;31015;-81
2023/04/24 01:20:05;;;;;;;17.75;10.35;;;;;;;-144.85;100.00;61331.59;5019745;28;32332;-82
2023/04/24 01:22:34;;;;;;;17.02;9.90;;;;;;;-144.85;100.00;61331.59;5031429;28;32039;-81
2023/04/24 01:25:02;;;;;;;15.07;9.65;;;;;;;-144.85;100.00;61331.59;5022441;28;32508;-82
2023/04/24 01:27:30;;;;;;;18.67;10.05;;;;;;;-144.85;100.00;61331.59;5025309;28;31065;-82
2023/04/24 01:29:57;;;;;;;15.85;10.20;;;;;;;-144.85;100.00;61331.59;5019256;28;31592;-81
2023/04/24 01:32:25;;;;;;;14.68;9.85;;;;;;;-144.85;100.00;61331.59;5017622;28;31944;-79
2023/04/24 01:34:53;;;;;;;18.17;10.70;;;;;;;-144.85;100.00;61331.59;5031291;28;32363;-80
2023/04/24 01:37:21;;;;;;;15.07;10.57;;;;;;;-144.85;100.00;61331.59;5019692;28;32099;-80
2023/04/24 01:39:49;;;;;;;14.50;10.30;;;;;;;-144.85;100.00;61331.59;5018606;28;30801;-80
2023/04/24 01:42:18;;;;;;;16.73;10.95;;;;;;;-144.85;100.00;61331.59;5032476;28;30494;-81
2023/04/24 01:44:47;;;;;;;20.65;11.25;;;;;;;-144.85;100.00;61331.59;5015951;28;32638;-80
2023/04/24 01:47:14;;;;;;;19.70;11.77;;;;;;;-144.85;100.00;61331.59;5018147;28;30818;-81
2023/04/24 01:49:41;;;;;;;18.02;11.77;;;;;;;-144.85;100.00;61331.59;5019813;28;31803;-82
2023/04/24 01:52:08;;;;;;;15.80;11.00;;;;;;;-144.85;100.00;61331.59;5018625;28;31294;-80
2023/04/24 01:54:35;;;;;;;17.40;11.35;;;;;;;-144.85;100.00;61331.59;5002378;28;31307;-82
2023/04/24 01:57:03;;;;;;;20.98;11.60;;;;;;;-144.85;100.00;61331.59;5017799;28;30705;-81
2023/04/24 01:59:33;;;;;;;16.52;11.48;;;;;;;-144.85;100.00;61331.59;5002485;28;31167;-82
2023/04/24 02:02:00;;;;;;;17.85;11.40;;;;;;;-144.85;100.00;61331.59;5018066;28;32617;-83
2023/04/24 02:04:27;;;;;;;18.08;11.23;;;;;;;-144.85;100.00;61331.59;4999030;28;31951;-83
2023/04/24 02:06:54;;;;;;;18.08;11.73;;;;;;;-144.85;100.00;61331.59;5003015;28;31087;-82
2023/04/24 02:09:21;;;;;;;17.15;11.85;;;;;;;-144.85;100.00;61331.59;5015737;28;30766;-80
2023/04/24 02:11:50;;;;;;;19.50;12.27;;;;;;;-144.85;100.00;61331.59;5004814;28;30499;-82
2023/04/24 02:14:17;;;;;;;21.58;12.93;;;;;;;-144.85;100.00;61331.59;5018816;28;31775;-83
2023/04/24 02:16:45;;;;;;;20.45;13.93;;;;;;;-144.85;100.00;61331.59;5018667;28;30926;-83
2023/04/24 02:19:13;;;;;;;21.13;14.15;;;;;;;-144.85;100.00;61331.59;5020861;28;31390;-81
2023/04/24 02:21:40;;;;;;;24.67;13.82;;;;;;;-144.85;100.00;61331.59;5003356;28;30467;-81
2023/04/24 02:24:08;;;;;;;22.42;14.20;;;;;;;-144.85;100.00;61331.59;5020809;28;31473;-82
2023/04/24 02:26:35;;;;;;;23.25;15.23;;;;;;;-144.85;100.00;61331.59;5004866;28;31807;-83
2023/04/24 02:29:02;;;;;;;21.42;14.63;;;;;;;-144.85;100.00;61331.59;5008120;28;30639;-82
2023/04/24 02:31:29;;;;;;;23.00;15.25;;;;;;;-144.85;100.00;61331.59;5020305;28;30263;-81
2023/04/24 02:33:57;;;;;;;25.30;15.50;;;;;;;-144.85;100.00;61331.59;5002655;28;32361;-83
2023/04/24 02:36:24;;;;;;;25.00;15.82;;;;;;;-144.85;100.00;61331.59;5026909;28;32417;-80
2023/04/24 02:38:51;;;;;;;23.73;15.80;;;;;;;-144.85;100.00;61331.59;5028911;28;31950;-82
2023/04/24 02:41:19;;;;;;;22.67;15.48;;;;;;;-144.85;100.00;61331.59;5023743;28;32890;-81
2023/04/24 02:43:47;;;;;;;27.40;15.55;;;;;;;-144.85;100.00;61331.59;5022398;28;32789;-82
2023/04/24 02:46:14;;;;;;;24.75;16.50;;;;;;;-144.85;100.00;61331.59;5026459;28;30904;-83
2023/04/24 02:48:42;;;;;;;25.02;15.70;;;;;;;-144.85;100.00;61331.59;5024511;28;31923;-81
2023/04/24 02:51:09;;;;;;;24.85;14.68;;;;;;;-144.85;100.00;61331.59;5009241;28;30806;-83
2023/04/24 02:53:36;;;;;;;21.55;15.05;;;;;;;-144.85;100.00;61331.59;5027077;28;33357;-84
2023/04/24 02:56:04;;;;;;;26.15;15.40;;;;;;;-144.85;100.00;61331.59;5030126;28;32480;-83
2023/04/24 02:58:31;;;;;;;23.17;15.45;;;;;;;-144.85;100.00;61331.59;5036234;28;30779;-84
2023/04/24 03:00:58;;;;;;;23.33;15.73;;;;;;;-144.85;100.00;61331.59;5040802;28;33239;-82
2023/04/24 03:03:26;;;;;;;24.42;15.00;;;;;;;-144.85;100.00;61331.59;5025798;28;31876;-82
2023/04/24 03:05:53;;;;;;;25.98;16.25;;;;;;;-144.85;100.00;61331.59;5025238;28;31304;-82
2023/04/24 03:08:20;;;;;;;23.95;15.48;;;;;;;-144.85;100.00;61331.59;5011032;28;30530;-82
2023/04/24 03:10:48;;;;;;;22.60;15.60;;;;;;;-144.85;100.00;61331.59;5023621;28;32002;-81
2023/04/24 03:13:16;;;;;;;22.83;14.50;;;;;;;-144.85;100.00;61331.59;5032455;28;31705;-82
2023/04/24 03:15:44;;;;;;;24.45;15.20;;;;;;;-144.85;100.00;61331.59;5030273;28;32229;-81
2023/04/24 03:18:12;;;;;;;21.83;15.25;;;;;;;-144.85;100.00;61331.59;5029231;28;31971;-83
2023/04/24 03:20:39;;;;;;;24.27;16.02;;;;;;;-144.85;100.00;61331.59;5032902;28;30690;-80
2023/04/24 03:23:07;;;;;;;21.63;14.20;;;;;;;-144.85;100.00;61331.59;5026984;28;31808;-81
2023/04/24 03:25:35;;;;;;;20.88;14.40;;;;;;;-144.85;100.00;61331.59;5027555;28;33116;-83
2023/04/24 03:28:03;;;;;;;21.33;14.52;;;;;;;-144.85;100.00;61331.59;5014107;28;31866;-83
2023/04/24 03:30:39;;;;;;;;;;;;;;;-144.85;100.00;61331.59;5034762;28;30648;-80
2023/04/24 03:33:07;;;;;;;22.70;13.55;;;;;;;-144.85;100.00;61331.59;5021984;28;31878;-83
2023/04/24 03:35:39;;;;;;;22.70;15.00;;;;;;;-144.85;100.00;61331.59;5013371;28;31582;-82
2023/04/24 03:38:10;;;;;;;21.80;14.65;;;;;;;-144.85;100.00;61331.59;5026115;28;30808;-82
2023/04/24 03:40:56;;;;;;;22.65;13.52;;;;;;;-144.85;100.00;61331.59;5033739;28;33552;-82
2023/04/24 03:43:39;;;;;;;21.15;14.90;;;;;;;-144.85;100.00;61331.59;5028167;28;32632;-82
2023/04/24 03:46:09;;;;;;;21.65;15.00;;;;;;;-144.85;100.00;61331.59;5027902;28;33983;-81
2023/04/24 03:48:41;;;;;;;24.07;14.40;;;;;;;-144.85;100.00;61331.59;5028521;28;31467;-82
2023/04/24 03:51:09;;;;;;;24.88;14.57;;;;;;;-144.85;100.00;61331.59;5011443;28;30969;-83
2023/04/24 03:53:39;;;;;;;21.85;14.00;;;;;;;-144.85;100.00;61331.59;5022420;28;31607;-81
2023/04/24 03:56:07;;;;;;;19.88;13.48;;;;;;;-144.85;100.00;61331.59;5026718;28;31758;-82
2023/04/24 03:58:35;;;;;;;24.27;14.10;;;;;;;-144.85;100.00;61331.59;5024764;28;31118;-81
2023/04/24 04:01:02;;;;;;;23.02;14.07;;;;;;;-144.85;100.00;61331.59;5021491;28;30715;-79
2023/04/24 04:03:44;;;;;;;22.00;13.25;;;;;;;-144.85;100.00;61331.59;5025421;28;31741;-81
2023/04/24 04:06:13;;;;;;;19.27;12.93;;;;;;;-144.85;100.00;61331.59;5008933;28;31579;-82
2023/04/24 04:08:41;;;;;;;21.95;12.52;;;;;;;-144.85;100.00;61331.59;5028971;28;31833;-82
2023/04/24 04:11:08;;;;;;;18.73;12.75;;;;;;;-144.85;100.00;61331.59;5024613;28;30475;-80
2023/04/24 04:13:36;;;;;;;20.05;12.27;;;;;;;-144.85;100.00;61331.59;5026079;28;31799;-80
2023/04/24 04:16:03;;;;;;;20.73;12.30;;;;;;;-144.85;100.00;61331.59;5011855;28;31331;-82
2023/04/24 04:18:31;;;;;;;17.55;11.95;;;;;;;-144.85;100.00;61331.59;5036764;28;31782;-81
2023/04/24 04:20:58;;;;;;;19.77;11.90;;;;;;;-144.85;100.00;61331.59;5043720;28;33280;-82
2023/04/24 04:23:25;;;;;;;19.17;11.23;;;;;;;-144.85;100.00;61331.59;5040951;28;32760;-82
2023/04/24 04:26:05;;;;;;;16.70;11.30;;;;;;;-144.85;100.00;61331.59;5039016;28;32645;-81
2023/04/24 04:28:56;;;;;;;17.58;11.40;;;;;;;-144.85;100.00;61331.59;5026151;28;32750;-82
2023/04/24 04:31:23;;;;;;;17.63;11.50;;;;;;;-144.85;100.00;61331.59;5030696;28;30714;-81
2023/04/24 04:33:50;;;;;;;18.00;10.93;;;;;;;-144.85;100.00;61331.59;5014434;28;31066;-81
2023/04/24 04:36:18;;;;;;;14.60;10.38;;;;;;;-144.85;100.00;61331.59;5027579;28;30846;-82
2023/04/24 04:38:51;;;;;;;17.00;11.10;;;;;;;-144.85;100.00;61331.59;5030225;28;31213;-81
2023/04/24 04:41:40;;;;;;;14.82;10.30;;;;;;;-144.85;100.00;61331.59;5025694;28;31902;-82
2023/04/24 04:44:09;;;;;;;16.25;9.75;;;;;;;-144.85;100.00;61331.59;5018025;28;32031;-83
2023/04/24 04:46:38;;;;;;;15.75;10.00;;;;;;;-144.85;100.00;61331.59;5035443;28;31245;-83
2023/04/24 04:49:16;;;;;;;16.00;9.75;;;;;;;-144.85;100.00;61331.59;5034782;28;32455;-83
2023/04/24 04:51:44;;;;;;;14.00;9.52;;;;;;;-144.85;100.00;61331.59;5034568;28;32075;-81
2023/04/24 04:54:12;;;;;;;16.13;9.77;;;;;;;-144.85;100.00;61331.59;5033476;28;33980;-81
2023/04/24 04:56:41;;;;;;;16.27;9.70;;;;;;;-144.85;100.00;61331.59;5018587;28;20030;-82
2023/04/24 04:59:09;;;;;;;13.55;8.85;;;;;;;-144.85;100.00;61331.59;5034319;28;31737;-84
2023/04/24 05:01:38;;;;;;;13.52;9.20;;;;;;;-144.85;100.00;61331.59;5033166;28;30895;-81
2023/04/24 05:04:07;;;;;;;15.93;8.90;;;;;;;-144.85;100.00;61331.59;5043519;28;32610;-84
2023/04/24 05:06:35;;;;;;;11.93;8.63;;;;;;;-144.85;100.00;61331.59;5046185;28;32624;-82
2023/04/24 05:09:03;;;;;;;13.63;8.93;;;;;;;-144.85;100.00;61331.59;5040339;28;32312;-82
2023/04/24 05:11:39;;;;;;;11.65;8.82;;;;;;;-144.85;100.00;61331.59;5024181;28;31658;-82
2023/04/24 05:14:07;;;;;;;14.00;9.00;;;;;;;-144.85;100.00;61331.59;5035682;28;32590;-82
2023/04/24 05:16:40;;;;;;;10.38;8.30;;;;;;;-144.85;100.00;61331.59;5035729;28;32566;-81
2023/04/24 05:19:10;;;;;;;11.35;8.40;;;;;;;-144.85;100.00;61331.59;5032239;28;32142;-82
2023/04/24 05:21:41;;;;;;;10.30;7.82;;;;;;;-144.85;100.00;61331.59;5036745;28;31474;-81
2023/04/24 05:24:09;;;;;;;9.32;7.78;;;;;;;-144.85;100.00;61331.59;5040683;28;31886;-84
2023/04/24 05:26:55;;;;;;;10.77;7.90;;;;;;;-144.85;100.00;61331.59;5043879;28;33753;-85
2023/04/24 05:29:28;;;;;;;11.18;7.75;;;;;;;-144.85;100.00;61331.59;5042451;28;31632;-83
2023/04/24 05:31:55;;;;;;;10.27;7.75;;;;;;;-144.85;100.00;61331.59;5042149;28;31489;-84
2023/04/24 05:34:23;;;;;;;10.38;6.40;;;;;;;-144.85;100.00;61331.59;5041929;28;32234;-85
2023/04/24 05:36:54;;;;;;;8.93;6.82;;;;;;;-144.85;100.00;61331.59;5037872;28;32321;-86
2023/04/24 05:39:22;;;;;;;12.55;7.35;;;;;;;-144.85;100.00;61331.59;5025527;28;30877;-82
2023/04/24 05:41:49;;;;;;;9.40;6.75;;;;;;;-144.85;100.00;61331.59;5022633;28;30410;-84
2023/04/24 05:44:16;;;;;;;10.10;6.95;;;;;;;-144.85;100.00;61331.59;5041305;28;32569;-85
2023/04/24 05:46:43;;;;;;;9.68;6.97;;;;;;;-144.85;100.00;61331.59;5042288;28;32399;-83
2023/04/24 05:49:11;;;;;;;8.38;6.13;;;;;;;-144.85;100.00;61331.59;5025458;28;31810;-83
2023/04/24 05:51:39;;;;;;;9.40;6.53;;;;;;;-144.85;100.00;61331.59;5042334;28;31576;-85
2023/04/24 05:54:07;;;;;;;10.40;6.65;;;;;;;-144.85;100.00;61331.59;5042070;28;32588;-85
2023/04/24 05:56:34;;;;;;;9.10;6.60;;;;;;;-144.85;100.00;61331.59;5042611;28;32843;-85
2023/04/24 05:59:04;;;;;;;7.68;6.20;;;;;;;-144.85;100.00;61331.59;5058173;28;31825;-87
2023/04/24 06:01:31;;;;;;;8.35;5.80;;;;;;;-144.85;100.00;61331.59;5042049;28;31784;-87
2023/04/24 06:04:36;;;;;;;7.05;5.82;;;;;;;-144.85;100.00;61331.59;5043122;28;32986;-86
2023/04/24 06:07:40;;;;;;;8.70;6.43;;;;;;;-144.85;100.00;61331.59;5021268;28;32434;-86
2023/04/24 06:10:54;;;;;;;8.15;5.85;;;;;;;-144.85;100.00;61331.59;5033464;28;33846;-87
2023/04/24 06:13:22;;;;;;;8.85;6.07;;;;;;;-144.85;100.00;61331.59;5042182;28;33183;-87
2023/04/24 06:16:12;;;;;;;8.75;6.35;;;;;;;-144.85;100.00;61331.59;5040120;28;33579;-86
2023/04/24 06:18:43;;;;;;;8.15;6.03;;;;;;;-144.85;100.00;61331.59;5041952;28;32498;-87
2023/04/24 06:21:10;;;;;;;7.80;5.60;;;;;;;-144.85;100.00;61331.59;5046535;28;33664;-87
2023/04/24 06:23:38;;;;;;;8.02;4.55;;;;;;;-144.85;100.00;61331.59;5042156;28;31662;-88
2023/04/24 06:26:05;;;;;;;4.53;3.80;;;;;;;-144.85;100.00;61331.59;5042100;28;33196;-86
2023/04/24 06:28:32;;;;;;;4.50;3.42;;;;;;;-144.85;100.00;61331.59;5042786;28;34007;-88
2023/04/24 06:30:59;;;;;;;7.45;4.00;;;;;;;-144.85;100.00;61331.59;5025069;28;32152;-88
2023/04/24 06:33:26;;;;;;;4.40;3.17;;;;;;;-144.85;100.00;61331.59;5039533;28;32476;-87
2023/04/24 06:35:53;;;;;;;4.75;3.10;;;;;;;-144.85;100.00;61331.59;5025645;28;32680;-88
2023/04/24 06:38:21;;;;;;;3.70;2.63;;;;;;;-144.85;100.00;61331.59;5042109;28;33509;-88
2023/04/24 06:40:48;;;;;;;2.72;2.25;;;;;;;-144.85;100.00;61331.59;5026146;28;32394;-87
2023/04/24 06:43:15;;;;;;;4.53;2.00;;;;;;;-144.85;100.00;61331.59;5025513;28;31793;-87
2023/04/24 06:45:43;;;;;;;3.50;1.90;;;;;;;-144.85;100.00;61331.59;5041309;28;32331;-85
2023/04/24 06:48:11;;;;;;;2.53;1.92;;;;;;;-144.85;100.00;61331.59;5042100;28;33594;-88
2023/04/24 06:50:38;;;;;;;3.08;1.98;;;;;;;-144.85;100.00;61331.59;5053367;28;31830;-87
2023/04/24 06:53:05;;;;;;;3.10;1.65;;;;;;;-144.85;100.00;61331.59;5044970;28;32662;-87
2023/04/24 06:55:32;;;;;;;2.45;1.55;;;;;;;-144.85;100.00;61331.59;5051685;28;34091;-86
2023/04/24 06:58:00;;;;;;;2.67;1.35;;;;;;;-144.85;100.00;61331.59;5049263;28;33763;-87
2023/04/24 07:00:27;;;;;;;1.52;1.20;;;;;;;-144.85;100.00;61331.59;5044554;28;31851;-87
2023/04/24 07:02:54;;;;;;;2.60;1.15;;;;;;;-144.85;100.00;61331.59;5041904;28;32771;-87
2023/04/24 07:05:23;;;;;;;1.50;1.23;;;;;;;-144.85;100.00;61331.59;5045789;28;32049;-88
2023/04/24 07:07:51;;;;;;;1.38;1.00;;;;;;;-144.85;100.00;61331.59;5026733;28;32200;-86
2023/04/24 07:10:18;;;;;;;1.50;1.08;;;;;;;-144.85;100.00;61331.59;5042279;28;31847;-88
2023/04/24 07:12:46;;;;;;;1.58;1.20;;;;;;;-144.85;100.00;61331.59;5026893;28;31797;-87
2023/04/24 07:15:13;;;;;;;2.80;0.98;;;;;;;-144.85;100.00;61331.59;5045884;28;35501;-87
2023/04/24 07:17:43;;;;;;;0.95;0.80;;;;;;;-144.85;100.00;61331.59;5029751;28;32218;-87
2023/04/24 07:20:11;;;;;;;1.05;0.93;;;;;;;-144.85;100.00;61331.59;5045671;28;31711;-86
2023/04/24 07:22:38;;;;;;;1.00;0.80;;;;;;;-144.85;100.00;61331.59;5029723;28;31900;-86
2023/04/24 07:25:07;;;;;;;2.58;0.85;;;;;;;-144.85;100.00;61331.59;5045735;28;32107;-88
2023/04/24 07:27:35;;;;;;;2.65;1.10;;;;;;;-144.85;100.00;61331.59;5045879;28;33549;-87
2023/04/24 07:30:04;;;;;;;2.85;1.13;;;;;;;-144.85;100.00;61331.59;5029793;28;31952;-88
2023/04/24 07:32:31;;;;;;;1.60;1.50;;;;;;;-144.85;100.00;61331.59;5029672;28;31283;-87
2023/04/24 07:34:58;;;;;;;2.33;1.70;;;;;;;-144.85;100.00;61331.59;5056423;28;32293;-87
2023/04/24 07:37:26;;;;;;;2.45;2.00;;;;;;;-144.85;100.00;61331.59;5045974;28;32310;-87
2023/04/24 07:39:53;;;;;;;3.35;2.60;;;;;;;-144.85;100.00;61331.59;5046007;28;33236;-86
2023/04/24 07:42:20;;;;;;;4.10;3.10;;;;;;;-144.85;100.00;61331.59;5047585;28;31662;-87
2023/04/24 07:44:47;;;;;;;6.32;4.03;;;;;;;-144.85;100.00;61331.59;5056011;28;32551;-86
2023/04/24 07:47:15;;;;;;;9.15;4.82;;;;;;;-144.85;100.00;61331.59;5044894;28;32344;-86
2023/04/24 07:49:42;;;;;;;7.75;5.28;;;;;;;-144.85;100.00;61331.59;5046165;28;32362;-86
2023/04/24 07:52:13;;;;;;;11.75;5.70;;;;;;;-144.85;100.00;61331.59;5057787;28;31366;-87
2023/04/24 07:54:41;;;;;;;11.02;6.20;;;;;;;-144.85;100.00;61331.59;5047298;28;33566;-86
2023/04/24 07:57:09;;;;;;;11.68;6.78;;;;;;;-144.85;100.00;61331.59;5032501;28;32232;-87
2023/04/24 07:59:36;;;;;;;13.68;7.50;;;;;;;-144.85;100.00;61331.59;5030996;28;31734;-87
2023/04/24 08:02:03;;;;;;;8.75;6.53;;;;;;;-144.85;100.00;61331.59;5030535;28;31607;-86
2023/04/24 08:04:30;;;;;;;12.55;6.80;;;;;;;-144.85;100.00;61331.59;5047442;28;35130;-86
2023/04/24 08:06:58;;;;;;;10.70;6.53;;;;;;;-144.85;100.00;61331.59;5061305;28;32122;-86
2023/04/24 08:09:25;;;;;;;10.60;6.22;;;;;;;-144.85;100.00;61331.59;5035774;28;33093;-87
2023/04/24 08:11:54;;;;;;;13.48;6.88;;;;;;;-144.85;100.00;61331.59;5046624;28;31642;-88
2023/04/24 08:14:21;;;;;;;13.05;6.85;;;;;;;-144.85;100.00;61331.59;5059310;28;32602;-85
2023/04/24 08:17:05;;;;;;;13.35;6.90;;;;;;;-144.85;100.00;61331.59;5060350;28;32306;-87
2023/04/24 08:19:33;;;;;;;11.32;5.90;;;;;;;-144.85;100.00;61331.59;5031159;28;31717;-88
2023/04/24 08:22:00;;;;;;;12.45;5.88;;;;;;;-144.85;100.00;61331.59;5046971;28;31211;-88
2023/04/24 08:24:28;;;;;;;12.30;6.68;;;;;;;-144.85;100.00;61331.59;5046901;28;32356;-87
2023/04/24 08:26:57;;;;;;;10.40;5.97;;;;;;;-144.85;100.00;61331.59;5031110;28;32068;-86
2023/04/24 08:29:31;;;;;;;11.18;5.03;;;;;;;-144.85;100.00;61331.59;5047509;28;33110;-88
2023/04/24 08:31:59;;;;;;;12.05;5.30;;;;;;;-144.85;100.00;61331.59;5033622;28;32943;-88
2023/04/24 08:34:26;;;;;;;14.90;5.50;;;;;;;-144.85;100.00;61331.59;5032291;28;32679;-87
2023/04/24 08:36:56;;;;;;;13.07;5.72;;;;;;;-144.85;100.00;61331.59;5046638;28;31828;-86
2023/04/24 08:39:24;;;;;;;13.75;4.93;;;;;;;-144.85;100.00;61331.59;5051950;28;32034;-85
2023/04/24 08:41:52;;;;;;;11.45;4.63;;;;;;;-144.85;100.00;61331.59;5055613;28;32869;-84
2023/04/24 08:44:20;;;;;;;10.85;4.47;;;;;;;-144.85;100.00;61331.59;5046843;28;33812;-86
2023/04/24 08:46:48;;;;;;;16.40;5.85;;;;;;;-144.85;100.00;61331.59;5046903;28;33544;-84
2023/04/24 08:49:18;;;;;;;17.27;6.03;;;;;;;-144.85;100.00;61331.59;5046386;28;33208;-85
2023/04/24 08:51:47;;;;;;;12.02;4.97;;;;;;;-144.85;100.00;61331.59;5065756;28;31196;-84
2023/04/24 08:54:15;;;;;;;12.70;4.50;;;;;;;-144.85;100.00;61331.59;5046087;28;33434;-86
2023/04/24 08:56:44;;;;;;;12.00;3.85;;;;;;;-144.85;100.00;61331.59;5028821;28;34144;-88
2023/04/24 08:59:13;;;;;;;10.18;3.78;;;;;;;-144.85;100.00;61331.59;5059199;28;32150;-85
2023/04/24 09:01:41;;;;;;;12.07;3.67;;;;;;;-144.85;100.00;61331.59;5046116;28;31940;-86
2023/04/24 09:04:10;;;;;;;13.00;3.60;;;;;;;-144.85;100.00;61331.59;5045890;28;32370;-85
2023/04/24 09:06:38;;;;;;;15.13;3.60;;;;;;;-144.85;100.00;61331.59;5048000;28;33758;-84
2023/04/24 09:09:07;;;;;;;9.00;3.42;;;;;;;-144.85;100.00;61331.59;5038780;28;31645;-85
2023/04/24 09:11:34;;;;;;;8.88;3.47;;;;;;;-144.85;100.00;61331.59;5043526;28;32965;-86
2023/04/24 09:14:03;;;;;;;9.35;3.22;;;;;;;-144.85;100.00;61331.59;5056328;28;34111;-84
2023/04/24 09:16:33;;;;;;;15.77;3.80;;;;;;;-144.85;100.00;61331.59;5029927;28;35825;-83
2023/04/24 09:19:03;;;;;;;16.45;3.63;;;;;;;-144.85;100.00;61331.59;5072015;22;32975;-67
2023/04/24 09:21:35;;;;;;;11.57;3.30;;;;;;;-144.85;100.00;61331.59;5050193;28;30295;-66
2023/04/24 09:24:05;;;;;;;13.48;2.83;;;;;;;-144.85;100.00;61331.59;5043098;28;32699;-66
2023/04/24 09:26:36;;;;;;;19.33;3.42;;;;;;;-144.85;100.00;61331.59;5040812;28;32221;-67
2023/04/24 09:29:04;;;;;;;9.30;3.03;;;;;;;-144.85;100.00;61331.59;5038432;28;32901;-66
2023/04/24 09:31:32;;;;;;;12.05;3.08;;;;;;;-144.85;100.00;61331.59;5037945;28;31443;-64
2023/04/24 09:34:07;;;;;;;9.88;2.95;;;;;;;-144.85;100.00;61331.59;5039190;28;32571;-64
2023/04/24 09:36:37;;;;;;;12.35;2.65;;;;;;;-144.85;100.00;61331.59;5031820;28;30227;-66
2023/04/24 09:39:15;;;;;;;16.63;3.65;;;;;;;-144.85;100.00;61331.59;5032323;28;32859;-66
2023/04/24 09:41:46;;;;;;;15.88;3.25;;;;;;;-144.85;100.00;61331.59;5037019;28;32755;-66
2023/04/24 09:44:16;;;;;;;11.82;3.10;;;;;;;-144.85;100.00;61331.59;5040042;28;32508;-66
2023/04/24 09:46:48;;;;;;;11.18;3.00;;;;;;;-144.85;100.00;61331.59;5036268;28;32302;-67
2023/04/24 09:49:20;;;;;;;10.70;2.40;;;;;;;-144.85;100.00;61331.59;5020939;28;31633;-66
2023/04/24 09:51:47;;;;;;;9.05;2.50;;;;;;;-144.85;100.00;61331.59;5037390;28;32545;-66
2023/04/24 09:54:16;;;;;;;7.90;2.65;;;;;;;-144.85;100.00;61331.59;5038896;28;32352;-67
2023/04/24 09:56:46;;;;;;;9.82;2.67;;;;;;;-144.85;100.00;61331.59;5036394;28;32142;-67
2023/04/24 09:59:18;;;;;;;9.27;2.45;;;;;;;-144.85;100.00;61331.59;5036615;28;31897;-67
2023/04/24 10:01:48;;;;;;;8.40;2.70;;;;;;;-144.85;100.00;61331.59;5035866;28;31541;-66
2023/04/24 10:04:20;;;;;;;6.72;2.33;;;;;;;-144.85;100.00;61331.59;5038385;28;32541;-67
2023/04/24 10:06:49;;;;;;;10.27;2.83;;;;;;;-144.85;100.00;61331.59;5038272;28;31645;-67
2023/04/24 10:09:18;;;;;;;7.07;2.17;;;;;;;-144.85;100.00;61331.59;5038830;28;31792;-68
2023/04/24 10:11:48;;;;;;;9.07;2.22;;;;;;;-144.85;100.00;61331.59;5038686;28;30386;-67
2023/04/24 10:14:18;;;;;;;9.10;2.40;;;;;;;-144.85;100.00;61331.59;5038621;28;33327;-67
2023/04/24 10:16:48;;;;;;;4.85;2.00;;;;;;;-144.85;100.00;61331.59;5036892;28;33259;-67
2023/04/24 10:19:18;;;;;;;8.52;2.13;;;;;;;-144.85;100.00;61331.59;5038557;28;32010;-67
2023/04/24 10:21:46;;;;;;;9.18;2.38;;;;;;;-144.85;100.00;61331.59;5035151;28;31943;-67
2023/04/24 10:24:16;;;;;;;7.50;2.05;;;;;;;-144.85;100.00;61331.59;5036613;28;31224;-67
2023/04/24 10:26:45;;;;;;;8.93;2.50;;;;;;;-144.85;100.00;61331.59;5037574;28;33294;-67
2023/04/24 10:29:15;;;;;;;7.97;2.55;;;;;;;-144.85;100.00;61331.59;5036089;28;31697;-66
2023/04/24 10:31:45;;;;;;;11.85;2.40;;;;;;;-144.85;100.00;61331.59;5036566;28;31334;-65
2023/04/24 10:34:16;;;;;;;9.02;2.80;;;;;;;-144.85;100.00;61331.59;5037855;28;32764;-66
2023/04/24 10:36:50;;;;;;;9.32;2.38;;;;;;;-144.85;100.00;61331.59;5034317;28;32317;-66
2023/04/24 10:39:19;;;;;;;9.48;2.67;;;;;;;-144.85;100.00;61331.59;5035564;28;31678;-66
2023/04/24 10:41:58;;;;;;;8.18;2.55;;;;;;;-144.85;100.00;61331.59;5030766;28;32304;-65
2023/04/24 10:44:36;;;;;;;9.00;2.80;;;;;;;-144.85;100.00;61331.59;5038492;28;32260;-66
2023/04/24 10:47:03;;;;;;;8.77;2.10;;;;;;;-144.85;100.00;61331.59;5037559;28;31013;-66
2023/04/24 10:49:31;;;;;;;7.95;2.42;;;;;;;-144.85;100.00;61331.59;5036579;28;30629;-66
2023/04/24 10:52:05;;;;;;;9.05;2.22;;;;;;;-144.85;100.00;61331.59;5037000;28;31386;-65
2023/04/24 10:54:46;;;;;;;9.38;2.22;;;;;;;-144.85;100.00;61331.59;5035481;28;32315;-66
2023/04/24 10:57:20;;;;;;;5.78;1.85;;;;;;;-144.85;100.00;61331.59;5034947;28;33233;-66
2023/04/24 11:00:18;;;;;;;6.10;1.70;;;;;;;-144.85;100.00;61331.59;5038218;28;31549;-66
2023/04/24 11:02:50;;;;;;;4.55;1.63;;;;;;;-144.85;100.00;61331.59;5034507;28;31433;-66
2023/04/24 11:05:19;;;;;;;4.25;1.20;;;;;;;-144.85;100.00;61331.59;5034268;28;32092;-66
2023/04/24 11:08:14;;;;;;;5.13;1.30;;;;;;;-144.85;100.00;61331.59;5049099;28;32096;-65
2023/04/24 11:10:54;;;;;;;7.15;1.48;;;;;;;-144.85;100.00;61331.59;5032826;28;32629;-66
2023/04/24 11:13:23;;;;;;;4.82;1.60;;;;;;;-144.85;100.00;61331.59;5036934;28;32151;-65